createdAt,value
2019-03-26T00:02:47.400Z,3
2019-03-26T00:07:49.964Z,3
2019-03-26T00:12:52.304Z,3
2019-03-26T00:17:54.924Z,3
2019-03-26T00:22:57.321Z,3
2019-03-26T00:27:59.713Z,3.1
2019-03-26T00:33:02.186Z,3
2019-03-26T00:43:07.357Z,3
2019-03-26T00:48:09.705Z,3.1
2019-03-26T00:53:12.036Z,3.1
2019-03-26T00:58:14.513Z,3
2019-03-26T01:03:17.402Z,3.1
2019-03-26T01:08:19.588Z,3.1
2019-03-26T01:13:21.893Z,3.1
2019-03-26T01:18:24.380Z,3.1
2019-03-26T01:23:26.869Z,3.1
2019-03-26T01:28:29.297Z,3.1
2019-03-26T01:33:31.776Z,3.1
2019-03-26T01:38:34.228Z,3.1
2019-03-26T01:43:36.689Z,3.1
2019-03-26T01:48:39.172Z,3.1
2019-03-26T01:53:41.602Z,3.2
2019-03-26T01:58:44.090Z,3.2
2019-03-26T02:03:46.646Z,3.2
2019-03-26T02:08:49.033Z,3.2
2019-03-26T02:13:51.472Z,3.1
2019-03-26T02:18:53.944Z,3.2
2019-03-26T02:23:56.399Z,3.1
2019-03-26T02:28:58.870Z,3.1
2019-03-26T02:34:01.428Z,3.2
2019-03-26T02:39:03.835Z,3.2
2019-03-26T02:44:06.351Z,3.2
2019-03-26T02:49:08.766Z,3.2
2019-03-26T02:54:11.294Z,3.2
2019-03-26T02:59:13.679Z,3.2
2019-03-26T03:04:16.259Z,3.2
2019-03-26T03:09:18.652Z,3.1
2019-03-26T03:14:21.215Z,3
2019-03-26T03:19:23.563Z,3
2019-03-26T03:24:26.306Z,3
2019-03-26T03:29:28.569Z,3
2019-03-26T03:34:30.933Z,3
2019-03-26T03:39:33.379Z,3
2019-03-26T03:44:35.835Z,3
2019-03-26T03:49:38.366Z,3
2019-03-26T03:54:40.753Z,3
2019-03-26T03:59:43.261Z,3
2019-03-26T04:04:45.724Z,3
2019-03-26T04:09:48.229Z,3
2019-03-26T04:14:50.943Z,3
2019-03-26T04:19:53.242Z,3.1
2019-03-26T04:24:55.537Z,3.1
2019-03-26T04:29:58.002Z,3.1
2019-03-26T04:35:00.543Z,3.1
2019-03-26T04:40:02.947Z,3.1
2019-03-26T04:45:05.687Z,3
2019-03-26T04:50:07.854Z,3
2019-03-26T04:55:10.410Z,3
2019-03-26T05:00:12.786Z,3.1
2019-03-26T05:05:15.297Z,3.1
2019-03-26T05:10:17.716Z,3.1
2019-03-26T05:15:20.468Z,3.1
2019-03-26T05:25:25.209Z,3.1
2019-03-26T05:30:27.599Z,3.1
2019-03-26T05:35:30.060Z,3.1
2019-03-26T05:40:32.572Z,3.2
2019-03-26T05:45:39.977Z,3.2
2019-03-26T05:50:42.506Z,3.2
2019-03-26T05:55:44.926Z,3.2
2019-03-26T06:00:42.375Z,3.2
2019-03-26T06:05:44.859Z,3.2
2019-03-26T06:10:47.346Z,3.3
2019-03-26T06:15:49.789Z,3.3
2019-03-26T06:20:52.229Z,3.3
2019-03-26T06:25:54.721Z,3.4
2019-03-26T06:30:57.186Z,3.6
2019-03-26T06:35:59.671Z,3.7
2019-03-26T06:41:02.102Z,3.8
2019-03-26T06:46:04.677Z,4
2019-03-26T06:51:07.018Z,4.3
2019-03-26T07:01:11.957Z,4.8
2019-03-26T07:06:14.428Z,4.9
2019-03-26T07:11:16.897Z,5.3
2019-03-26T07:16:19.349Z,5.8
2019-03-26T07:21:21.782Z,6.3
2019-03-26T07:26:24.231Z,6.6
2019-03-26T07:36:29.241Z,6.3
2019-03-26T07:41:31.619Z,6
2019-03-26T07:46:34.087Z,5.8
2019-03-26T07:51:36.525Z,5.7
2019-03-26T07:56:38.974Z,5.5
2019-03-26T08:01:41.442Z,5.6
2019-03-26T08:06:43.937Z,5.5
2019-03-26T08:11:46.395Z,5.4
2019-03-26T08:16:48.846Z,5.3
2019-03-26T08:21:51.339Z,5.1
2019-03-26T08:26:53.728Z,5
2019-03-26T08:31:56.467Z,5.2
2019-03-26T08:36:58.797Z,5.6
2019-03-26T08:42:01.098Z,6
2019-03-26T08:47:03.550Z,6.5
2019-03-26T08:52:06.028Z,6.7
2019-03-26T08:57:08.456Z,6.8
2019-03-26T09:02:11.237Z,6.9
2019-03-26T09:07:13.395Z,6.9
2019-03-26T09:12:16.088Z,7.2
2019-03-26T09:17:19.897Z,7.9
2019-03-26T09:22:20.766Z,8.6
2019-03-26T09:27:23.374Z,8.7
2019-03-26T09:32:25.815Z,8.8
2019-03-26T09:37:28.174Z,9
2019-03-26T09:42:30.601Z,9.9
2019-03-26T09:47:33.052Z,9.7
2019-03-26T09:52:35.518Z,9.3
2019-03-26T09:57:37.995Z,8.5
2019-03-26T10:02:42.933Z,7.7
2019-03-26T10:07:42.907Z,7.1
2019-03-26T10:12:45.332Z,6.7
2019-03-26T10:17:47.796Z,6.6
2019-03-26T10:22:50.250Z,6.9
2019-03-26T10:27:52.708Z,7.1
2019-03-26T10:32:55.170Z,7.1
2019-03-26T10:37:57.989Z,6.9
2019-03-26T10:43:00.112Z,6.6
2019-03-26T10:48:02.642Z,6.4
2019-03-26T10:53:04.993Z,6.3
2019-03-26T10:58:07.460Z,6.4
2019-03-26T11:03:09.935Z,6.6
2019-03-26T11:08:12.809Z,6.7
2019-03-26T11:13:14.871Z,6.9
2019-03-26T11:18:17.338Z,7.2
2019-03-26T11:23:19.743Z,8.4
2019-03-26T11:28:22.198Z,9.9
2019-03-26T11:33:24.727Z,10.5
2019-03-26T11:38:27.221Z,10.1
2019-03-26T11:43:29.575Z,9.3
2019-03-26T11:48:32.042Z,8.9
2019-03-26T11:53:34.543Z,9.1
2019-03-26T12:03:39.446Z,9.1
2019-03-26T12:08:42.227Z,8.8
2019-03-26T12:13:44.335Z,8.4
2019-03-26T12:18:46.769Z,8.8
2019-03-26T12:23:49.269Z,11.9
2019-03-26T12:33:54.159Z,14
2019-03-26T12:38:57.018Z,13.1
2019-03-26T12:43:59.065Z,12.3
2019-03-26T12:49:01.631Z,11.3
2019-03-26T12:54:04.134Z,10.7
2019-03-26T12:59:06.429Z,11.4
2019-03-26T13:14:13.807Z,11.9
2019-03-26T13:19:16.295Z,11.7
2019-03-26T13:24:18.725Z,12.3
2019-03-26T13:29:21.249Z,12.5
2019-03-26T13:34:23.718Z,11
2019-03-26T13:39:26.304Z,10.2
2019-03-26T13:44:28.540Z,9.8
2019-03-26T13:49:31.007Z,9.3
2019-03-26T13:54:33.460Z,9.1
2019-03-26T15:15:12.930Z,7.1
2019-03-26T15:20:15.270Z,7
2019-03-26T15:25:17.811Z,6.9
2019-03-26T15:30:20.177Z,6.8
2019-03-26T15:35:22.647Z,7
2019-03-26T15:40:25.384Z,7.1
2019-03-26T15:45:27.688Z,7.2
2019-03-26T15:50:30.028Z,7.2
2019-03-26T15:55:32.502Z,7.3
2019-03-26T16:00:35.049Z,7.4
2019-03-26T16:05:37.418Z,7.4
2019-03-26T16:10:40.159Z,7.4
2019-03-26T16:15:44.467Z,7.3
2019-03-26T16:20:44.777Z,7.2
2019-03-26T16:25:47.245Z,6.9
2019-03-26T16:30:49.742Z,6.8
2019-03-26T16:35:52.178Z,6.7
2019-03-26T16:40:54.634Z,6.6
2019-03-26T16:45:57.368Z,6.4
2019-03-26T16:50:59.616Z,6.3
2019-03-26T16:56:02.223Z,6.2
2019-03-26T17:01:04.460Z,6
2019-03-26T17:06:06.885Z,5.9
2019-03-26T17:11:09.352Z,5.8
2019-03-26T17:16:11.901Z,5.8
2019-03-26T17:21:14.273Z,5.7
2019-03-26T17:26:16.820Z,5.6
2019-03-26T17:31:19.206Z,5.6
2019-03-26T17:36:21.671Z,5.5
2019-03-26T17:41:24.217Z,5.5
2019-03-26T17:46:26.548Z,5.4
2019-03-26T17:51:29.001Z,5.3
2019-03-26T17:56:31.457Z,5.2
2019-03-26T18:01:33.950Z,5
2019-03-26T18:06:36.462Z,4.8
2019-03-26T18:11:38.944Z,4.7
2019-03-26T18:16:41.384Z,4.7
2019-03-26T18:21:51.133Z,4.6
2019-03-26T18:26:46.332Z,4.6
2019-03-26T18:31:48.803Z,4.5
2019-03-26T18:36:51.457Z,4.5
2019-03-26T18:41:53.596Z,4.5
2019-03-26T18:46:56.125Z,4.4
2019-03-26T18:51:58.555Z,4.4
2019-03-26T18:57:00.955Z,4.4
2019-03-26T19:02:03.445Z,4.3
2019-03-26T19:07:05.905Z,4.3
2019-03-26T19:12:08.347Z,4.3
2019-03-26T19:17:10.913Z,4.3
2019-03-26T19:22:13.367Z,4.3
2019-03-26T19:27:15.751Z,4.2
2019-03-26T19:32:18.241Z,4.3
2019-03-26T19:37:20.674Z,4.3
2019-03-26T19:42:23.146Z,4.3
2019-03-26T19:47:25.892Z,4.3
2019-03-26T19:52:28.057Z,4.4
2019-03-26T19:57:30.536Z,4.4
2019-03-26T20:02:32.982Z,4.3
2019-03-26T20:07:35.468Z,4.3
2019-03-26T20:12:37.983Z,4.3
2019-03-26T20:17:40.508Z,4.3
2019-03-26T20:22:42.877Z,4.3
2019-03-26T20:27:45.307Z,4.2
2019-03-26T20:32:47.761Z,4.2
2019-03-26T20:37:50.221Z,4.2
2019-03-26T20:42:52.701Z,4.2
2019-03-26T20:47:55.457Z,4.3
2019-03-26T20:52:57.609Z,4.3
2019-03-26T20:58:00.071Z,4.3
2019-03-26T21:03:02.568Z,4.3
2019-03-26T21:08:05.006Z,4.2
2019-03-26T21:13:07.513Z,4.2
2019-03-26T21:18:10.327Z,4.2
2019-03-26T21:23:12.402Z,4.1
2019-03-26T21:28:14.938Z,4.1
2019-03-26T21:33:17.360Z,4.1
2019-03-26T21:38:19.793Z,4.1
2019-03-26T21:43:22.248Z,4.2
2019-03-26T21:48:24.736Z,4.2
2019-03-26T21:53:27.215Z,4.1
2019-03-26T21:58:29.626Z,4.2
2019-03-26T22:03:32.149Z,4.3
2019-03-26T22:08:34.570Z,4.2
2019-03-26T22:13:37.033Z,4.2
2019-03-26T22:18:39.628Z,4.3
2019-03-26T22:23:41.975Z,4.2
2019-03-26T22:28:44.407Z,4.2
2019-03-26T22:33:46.921Z,4.2
2019-03-26T22:38:49.370Z,4.2
2019-03-26T22:43:54.912Z,4.2
2019-03-26T22:48:54.391Z,4.2
2019-03-26T22:53:56.761Z,4.2
2019-03-26T22:58:59.203Z,4.2
2019-03-26T23:04:01.660Z,4.2
2019-03-26T23:09:04.193Z,4.3
2019-03-26T23:14:06.565Z,4.3
2019-03-26T23:19:09.132Z,4.3
2019-03-26T23:24:11.497Z,4.3
2019-03-26T23:29:13.949Z,4.2
2019-03-26T23:34:16.785Z,4.1
2019-03-26T23:39:18.892Z,4.1
2019-03-26T23:44:25.941Z,4.2
2019-03-26T23:49:23.899Z,4.2
2019-03-26T23:54:26.283Z,4.2
2019-03-26T23:59:28.749Z,4.2
